Time;durP1;ratioP1;P1;durP2;ratioP2;P2;SDS_P1;SDS_P2;PMS_P1;PMS_P2;Temp;Humidity;BMP_temperature;BMP_pressure;BME280_temperature;BME280_humidity;BME280_pressure;Samples;Min_cycle;Max_cycle;Signal;HPM_P1;HPM_P2
2022/07/03 00:02:26;;;;;;;5.75;3.53;;;;;;;19.43;59.75;100504.06;4927963;28;20055;-74
2022/07/03 00:04:53;;;;;;;4.38;3.60;;;;;;;19.38;60.01;100510.78;4922278;28;20094;-73
2022/07/03 00:07:20;;;;;;;3.15;2.85;;;;;;;19.30;60.43;100511.44;4926261;29;20539;-74
2022/07/03 00:09:46;;;;;;;4.85;3.20;;;;;;;19.24;60.54;100520.81;4926326;29;20056;-73
2022/07/03 00:12:13;;;;;;;4.50;3.20;;;;;;;19.17;60.51;100510.72;4925499;28;20597;-73
2022/07/03 00:14:40;;;;;;;4.28;2.95;;;;;;;19.13;60.81;100520.84;4927605;28;20194;-73
2022/07/03 00:17:07;;;;;;;3.85;3.10;;;;;;;18.95;61.09;100494.63;4923730;28;20111;-72
2022/07/03 00:19:33;;;;;;;4.15;3.58;;;;;;;19.00;61.01;100509.41;4922900;29;20118;-72
2022/07/03 00:22:05;;;;;;;5.00;3.97;;;;;;;18.94;61.62;100509.88;4919945;29;20047;-72
2022/07/03 00:24:42;;;;;;;8.55;4.45;;;;;;;18.86;62.50;100515.88;4922946;28;20536;-71
2022/07/03 00:27:09;;;;;;;6.63;4.10;;;;;;;18.69;63.30;100510.13;4921459;28;20094;-72
2022/07/03 00:29:41;;;;;;;7.50;4.60;;;;;;;18.54;64.33;100507.66;4928230;28;20508;-72
2022/07/03 00:32:24;;;;;;;7.93;4.72;;;;;;;18.41;65.11;100506.03;4927947;28;20062;-72
2022/07/03 00:34:55;;;;;;;6.80;4.50;;;;;;;18.37;65.83;100516.13;4921986;28;20154;-72
2022/07/03 00:37:23;;;;;;;10.30;4.65;;;;;;;18.31;65.97;100511.25;4926991;28;20472;-73
2022/07/03 00:39:50;;;;;;;6.70;3.90;;;;;;;18.28;66.51;100507.94;4922843;29;20075;-71
2022/07/03 00:42:17;;;;;;;6.75;4.55;;;;;;;18.28;66.19;100508.78;4932087;28;20047;-72
2022/07/03 00:44:50;;;;;;;6.25;3.83;;;;;;;18.21;66.12;100499.53;4923709;28;20055;-72
2022/07/03 00:47:19;;;;;;;5.60;3.88;;;;;;;18.24;66.03;100504.66;4929212;29;20070;-72
2022/07/03 00:49:49;;;;;;;5.95;3.90;;;;;;;18.31;66.20;100496.97;4928051;28;20051;-72
2022/07/03 00:52:17;;;;;;;5.90;3.35;;;;;;;18.34;65.59;100502.97;4929254;28;20052;-72
2022/07/03 00:54:50;;;;;;;3.92;3.30;;;;;;;18.36;65.51;100498.34;4923064;29;20084;-73
2022/07/03 00:57:19;;;;;;;6.13;3.30;;;;;;;18.35;65.32;100496.63;4924105;28;20138;-72
2022/07/03 00:59:47;;;;;;;3.65;2.90;;;;;;;18.35;65.03;100499.31;4929536;28;20500;-74
2022/07/03 01:02:30;;;;;;;3.60;2.80;;;;;;;18.31;64.41;100495.16;4928372;29;20052;-72
2022/07/03 01:05:09;;;;;;;4.20;2.88;;;;;;;18.28;64.57;100492.72;4929629;29;20047;-71
2022/07/03 01:08:11;;;;;;;4.78;2.70;;;;;;;18.24;64.58;100496.63;4926958;28;20045;-73
2022/07/03 01:11:06;;;;;;;4.00;2.60;;;;;;;18.23;64.74;100497.59;4927700;29;20631;-72
2022/07/03 01:14:00;;;;;;;3.00;2.70;;;;;;;18.15;65.00;100500.84;4928671;29;20143;-74
2022/07/03 01:16:37;;;;;;;5.93;2.95;;;;;;;18.16;65.54;100496.34;4928040;28;20394;-74
2022/07/03 01:19:42;;;;;;;3.20;2.55;;;;;;;18.17;65.16;100498.06;4923359;29;20048;-73
2022/07/03 01:22:30;;;;;;;2.85;2.30;;;;;;;18.12;65.45;100495.72;4926484;28;20048;-71
2022/07/03 01:25:12;;;;;;;3.88;2.50;;;;;;;18.12;65.70;100494.84;4926561;28;20530;-73
2022/07/03 01:27:47;;;;;;;3.78;2.60;;;;;;;18.07;66.28;100489.03;4928718;28;20485;-72
2022/07/03 01:30:14;;;;;;;3.47;2.75;;;;;;;17.99;66.09;100496.78;4928655;28;20060;-73
2022/07/03 01:32:40;;;;;;;5.40;2.47;;;;;;;17.91;66.29;100499.19;4931891;28;20456;-73
2022/07/03 01:35:08;;;;;;;3.90;2.67;;;;;;;17.71;66.81;100474.75;4930828;28;20652;-73
2022/07/03 01:37:38;;;;;;;7.40;3.08;;;;;;;17.87;67.46;100490.53;4933889;28;20559;-72
2022/07/03 01:40:06;;;;;;;4.30;2.72;;;;;;;17.73;67.76;100469.28;4930534;28;20075;-72
2022/07/03 01:42:40;;;;;;;4.97;3.00;;;;;;;17.84;67.57;100488.94;4928460;28;20043;-72
2022/07/03 01:45:09;;;;;;;4.68;2.90;;;;;;;17.76;67.81;100487.81;4925391;28;20058;-72
2022/07/03 01:47:41;;;;;;;2.87;2.60;;;;;;;17.63;68.56;100482.47;4933208;28;20543;-73
2022/07/03 01:50:11;;;;;;;4.13;2.50;;;;;;;17.63;68.65;100493.19;4925946;28;20477;-71
2022/07/03 01:52:40;;;;;;;;;;;;;;;17.59;68.97;100493.53;4926919;28;20047;-73
2022/07/03 01:55:15;;;;;;;3.47;2.75;;;;;;;17.51;69.23;100489.59;4928241;28;19931;-72
2022/07/03 01:57:44;;;;;;;4.78;2.60;;;;;;;17.52;69.35;100485.09;4930947;28;20333;-72
2022/07/03 02:00:13;;;;;;;6.13;3.00;;;;;;;17.57;69.31;100474.06;4925698;28;20654;-72
2022/07/03 02:02:45;;;;;;;3.10;2.80;;;;;;;17.60;69.45;100471.16;4929680;28;20118;-72
2022/07/03 02:05:30;;;;;;;2.83;2.63;;;;;;;17.69;68.84;100465.97;4926231;28;20102;-71
2022/07/03 02:08:11;;;;;;;4.80;2.83;;;;;;;17.74;68.61;100461.16;4926434;28;20056;-72
2022/07/03 02:10:46;;;;;;;4.13;2.97;;;;;;;17.74;68.59;100458.47;4928988;28;20051;-72
2022/07/03 02:13:22;;;;;;;3.42;2.55;;;;;;;17.76;68.75;100453.00;4930905;28;20048;-73
2022/07/03 02:15:53;;;;;;;4.28;2.80;;;;;;;17.74;68.69;100447.75;4919163;28;20500;-72
2022/07/03 02:18:30;;;;;;;4.60;2.88;;;;;;;17.72;68.69;100455.03;4922920;28;20103;-73
2022/07/03 02:21:04;;;;;;;3.88;3.15;;;;;;;17.50;69.20;100428.97;4926612;28;20052;-72
2022/07/03 02:23:38;;;;;;;5.40;3.65;;;;;;;17.62;69.13;100454.00;4926136;28;20051;-71
2022/07/03 02:26:10;;;;;;;3.53;3.00;;;;;;;17.56;69.33;100453.59;4922783;28;20064;-71
2022/07/03 02:28:56;;;;;;;3.92;3.22;;;;;;;17.55;69.52;100466.13;4924320;28;20059;-72
2022/07/03 02:31:26;;;;;;;3.63;3.17;;;;;;;17.46;69.85;100459.66;4928578;29;20055;-72
2022/07/03 02:33:58;;;;;;;5.65;3.50;;;;;;;17.28;70.40;100473.53;4920528;28;20492;-72
2022/07/03 02:36:31;;;;;;;3.95;3.30;;;;;;;17.10;71.41;100473.06;4925340;28;20063;-72
2022/07/03 02:38:59;;;;;;;3.75;3.20;;;;;;;16.95;72.70;100469.69;4921556;29;20059;-72
2022/07/03 02:41:42;;;;;;;4.30;3.05;;;;;;;16.72;72.91;100460.63;4925229;29;20051;-71
2022/07/03 02:44:26;;;;;;;3.78;3.38;;;;;;;16.71;73.62;100482.97;4923403;28;20067;-70
2022/07/03 02:47:06;;;;;;;5.00;3.20;;;;;;;16.64;73.89;100486.19;4923041;28;20055;-70
2022/07/03 02:49:44;;;;;;;4.37;2.57;;;;;;;16.56;74.28;100483.16;4929112;28;20086;-72
2022/07/03 02:52:34;;;;;;;5.07;3.15;;;;;;;16.47;74.77;100495.38;4928999;28;20542;-71
2022/07/03 02:55:31;;;;;;;4.20;2.97;;;;;;;16.54;75.20;100493.09;4923406;28;20071;-72
2022/07/03 02:58:22;;;;;;;4.47;3.17;;;;;;;16.66;74.19;100500.31;4920953;29;20259;-71
2022/07/03 03:01:04;;;;;;;5.65;2.90;;;;;;;16.66;74.20;100489.63;4923846;29;20451;-73
2022/07/03 03:03:32;;;;;;;7.13;3.10;;;;;;;16.66;73.97;100486.94;4926759;29;20059;-72
2022/07/03 03:06:05;;;;;;;4.63;2.80;;;;;;;16.68;73.93;100490.38;4923074;28;20044;-72
2022/07/03 03:08:41;;;;;;;4.03;2.80;;;;;;;16.61;74.16;100481.03;4922448;29;20056;-72
2022/07/03 03:11:19;;;;;;;3.42;2.78;;;;;;;16.64;74.28;100491.56;4928204;29;20054;-72
2022/07/03 03:13:50;;;;;;;3.05;2.80;;;;;;;16.64;74.14;100496.91;4927482;28;20047;-72
2022/07/03 03:16:16;;;;;;;;;;;;;;;16.59;73.90;100488.31;4927029;29;20224;-73
2022/07/03 03:18:46;;;;;;;4.95;2.88;;;;;;;16.44;74.54;100475.06;4920627;29;19974;-73
2022/07/03 03:21:17;;;;;;;4.47;2.80;;;;;;;16.48;74.92;100475.69;4924925;28;20087;-73
2022/07/03 03:23:48;;;;;;;4.60;2.90;;;;;;;16.66;74.74;100497.66;4922670;29;20059;-72
2022/07/03 03:26:24;;;;;;;4.30;2.78;;;;;;;16.68;74.54;100488.56;4928214;28;20147;-73
2022/07/03 03:28:52;;;;;;;2.75;2.50;;;;;;;16.72;73.86;100490.03;4925307;29;20481;-72
2022/07/03 03:31:19;;;;;;;2.63;2.35;;;;;;;16.71;73.83;100495.47;4925445;28;20047;-70
2022/07/03 03:33:50;;;;;;;4.07;2.88;;;;;;;16.64;73.79;100480.84;4928460;28;20051;-73
2022/07/03 03:36:18;;;;;;;2.95;2.42;;;;;;;16.68;73.47;100493.91;4924118;28;20051;-72
2022/07/03 03:38:47;;;;;;;3.20;2.65;;;;;;;16.54;73.64;100479.75;4925064;28;20044;-74
2022/07/03 03:41:13;;;;;;;4.55;2.80;;;;;;;16.63;73.38;100506.75;4929606;28;20102;-73
2022/07/03 03:43:44;;;;;;;7.27;2.80;;;;;;;16.65;73.63;100510.16;4922462;28;20134;-72
2022/07/03 03:46:10;;;;;;;4.28;2.90;;;;;;;16.67;72.82;100499.38;4926742;28;20956;-73
2022/07/03 03:48:37;;;;;;;2.50;2.22;;;;;;;16.83;73.15;100508.00;4923623;28;20441;-73
2022/07/03 03:51:04;;;;;;;4.35;2.80;;;;;;;16.84;72.81;100512.41;4932254;28;20428;-73
2022/07/03 03:53:31;;;;;;;3.10;2.70;;;;;;;16.74;72.31;100492.59;4922993;28;20058;-73
2022/07/03 03:55:58;;;;;;;4.75;2.38;;;;;;;16.93;72.13;100516.22;4928313;28;20063;-73
2022/07/03 03:58:25;;;;;;;3.25;2.40;;;;;;;16.93;72.36;100513.53;4928947;28;20059;-73
2022/07/03 04:00:53;;;;;;;3.58;2.72;;;;;;;16.96;71.86;100518.69;4927708;28;20096;-72
2022/07/03 04:03:20;;;;;;;3.20;2.45;;;;;;;17.00;71.88;100518.34;4931531;28;20055;-72
2022/07/03 04:05:46;;;;;;;3.78;2.45;;;;;;;16.99;71.59;100522.00;4926446;28;20048;-73
2022/07/03 04:08:13;;;;;;;4.55;2.67;;;;;;;16.98;71.60;100522.97;4925909;28;20052;-73
2022/07/03 04:10:39;;;;;;;3.53;2.67;;;;;;;16.97;71.97;100523.94;4917544;28;20067;-72
2022/07/03 04:13:06;;;;;;;4.78;2.83;;;;;;;16.92;72.12;100523.38;4932983;28;20756;-72
2022/07/03 04:15:33;;;;;;;2.60;2.40;;;;;;;16.89;72.40;100517.41;4924302;29;20068;-75
2022/07/03 04:18:03;;;;;;;3.17;2.80;;;;;;;16.90;72.69;100521.78;4925057;28;20037;-72
2022/07/03 04:20:30;;;;;;;2.38;2.17;;;;;;;16.88;73.02;100516.53;4922839;28;20194;-72
2022/07/03 04:22:57;;;;;;;3.60;2.55;;;;;;;16.92;72.85;100517.19;4923960;29;20468;-72
2022/07/03 04:25:25;;;;;;;4.30;2.78;;;;;;;16.92;72.80;100510.03;4924331;28;20456;-72
2022/07/03 04:27:52;;;;;;;4.38;2.65;;;;;;;16.96;72.55;100522.22;4930960;28;20111;-74
2022/07/03 04:30:39;;;;;;;5.18;2.97;;;;;;;17.00;72.74;100522.84;4920268;29;20058;-72
2022/07/03 04:33:06;;;;;;;4.03;2.40;;;;;;;17.01;72.05;100529.88;4933023;28;20335;-72
2022/07/03 04:35:32;;;;;;;3.42;2.33;;;;;;;17.04;72.05;100527.00;4928683;28;20479;-72
2022/07/03 04:37:59;;;;;;;3.45;2.53;;;;;;;17.07;72.00;100527.66;4926703;28;20059;-72
2022/07/03 04:40:26;;;;;;;4.10;2.70;;;;;;;17.18;71.79;100525.03;4929243;28;20062;-72
2022/07/03 04:42:52;;;;;;;4.13;2.75;;;;;;;17.22;71.22;100508.78;4924120;28;20044;-72
2022/07/03 04:45:19;;;;;;;3.08;2.63;;;;;;;17.39;70.50;100528.00;4921275;29;20426;-73
2022/07/03 04:47:46;;;;;;;3.20;2.88;;;;;;;17.50;70.26;100527.19;4928417;29;20047;-72
2022/07/03 04:50:12;;;;;;;2.92;2.35;;;;;;;17.60;70.03;100527.38;4921119;28;20056;-73
2022/07/03 04:52:39;;;;;;;2.97;2.67;;;;;;;17.68;69.66;100528.53;4927661;28;20111;-73
2022/07/03 04:55:07;;;;;;;2.92;2.72;;;;;;;17.76;69.73;100528.84;4924149;29;20099;-74
2022/07/03 04:57:34;;;;;;;3.90;3.40;;;;;;;17.86;69.34;100529.00;4925278;29;20063;-72
2022/07/03 05:00:01;;;;;;;3.83;3.20;;;;;;;17.89;69.21;100520.75;4926126;28;20064;-71
2022/07/03 05:02:27;;;;;;;4.95;2.75;;;;;;;17.98;68.92;100527.22;4923795;28;20051;-73
2022/07/03 05:04:54;;;;;;;3.10;2.40;;;;;;;18.12;68.62;100529.69;4939696;28;20050;-72
2022/07/03 05:07:21;;;;;;;3.22;2.88;;;;;;;18.12;68.01;100508.25;4925769;28;20528;-72
2022/07/03 05:09:47;;;;;;;3.03;2.70;;;;;;;18.29;67.55;100526.59;4928720;28;20055;-73
2022/07/03 05:12:14;;;;;;;4.28;2.90;;;;;;;18.38;67.23;100528.56;4931961;28;20048;-74
2022/07/03 05:14:41;;;;;;;3.85;3.20;;;;;;;18.45;67.35;100531.63;4929923;29;20131;-73
2022/07/03 05:17:07;;;;;;;3.42;2.50;;;;;;;18.44;67.07;100525.41;4928136;28;20082;-72
2022/07/03 05:19:37;;;;;;;3.95;2.90;;;;;;;18.58;67.56;100537.72;4927817;29;20452;-73
2022/07/03 05:22:04;;;;;;;3.20;2.60;;;;;;;18.57;67.47;100534.19;4924933;28;20624;-72
2022/07/03 05:24:30;;;;;;;4.25;3.25;;;;;;;18.66;67.35;100542.53;4929630;28;20047;-73
2022/07/03 05:26:57;;;;;;;3.35;2.80;;;;;;;18.68;67.81;100541.47;4933406;28;20067;-73
2022/07/03 05:29:24;;;;;;;3.88;2.67;;;;;;;18.67;67.76;100550.47;4930220;28;20402;-72
2022/07/03 05:31:50;;;;;;;4.15;2.97;;;;;;;18.68;67.80;100543.28;4929521;29;20076;-72
2022/07/03 05:34:17;;;;;;;4.38;2.90;;;;;;;18.70;67.63;100544.03;4925955;28;20055;-72
2022/07/03 05:36:45;;;;;;;3.10;2.80;;;;;;;18.70;67.72;100544.88;4922857;28;20493;-73
2022/07/03 05:41:57;;;;;;;3.40;3.10;;;;;;;18.78;67.05;100550.47;4917860;29;20059;-72
2022/07/03 05:44:23;;;;;;;3.20;2.88;;;;;;;18.80;66.88;100555.72;4923686;28;20047;-72
2022/07/03 05:46:50;;;;;;;4.35;3.20;;;;;;;18.86;67.30;100555.25;4917911;29;20119;-73
2022/07/03 05:49:17;;;;;;;4.00;3.30;;;;;;;18.90;66.37;100562.06;4924928;29;20086;-73
2022/07/03 05:51:43;;;;;;;3.33;2.92;;;;;;;18.97;66.39;100549.03;4926813;29;20456;-72
2022/07/03 05:54:11;;;;;;;3.22;2.85;;;;;;;19.06;66.25;100554.50;4924982;28;20505;-73
2022/07/03 05:56:38;;;;;;;5.30;3.25;;;;;;;19.17;64.61;100549.16;4924875;29;20417;-72
2022/07/03 05:59:05;;;;;;;3.15;2.95;;;;;;;19.23;63.86;100547.78;4924538;28;20055;-72
2022/07/03 06:01:32;;;;;;;3.70;2.88;;;;;;;19.36;64.00;100553.06;4928098;28;20048;-72
2022/07/03 06:03:59;;;;;;;7.63;3.10;;;;;;;19.53;63.43;100550.69;4926290;28;20044;-71
2022/07/03 06:06:26;;;;;;;6.30;3.17;;;;;;;19.72;62.32;100550.06;4922917;28;20072;-74
2022/07/03 06:08:52;;;;;;;3.47;3.17;;;;;;;19.78;61.66;100549.56;4928771;28;20091;-73
2022/07/03 06:11:19;;;;;;;4.82;3.33;;;;;;;19.79;61.00;100532.47;4930010;28;20104;-73
2022/07/03 06:13:47;;;;;;;4.60;2.88;;;;;;;20.09;60.75;100555.06;4926545;29;20056;-73
2022/07/03 06:16:13;;;;;;;5.32;3.00;;;;;;;20.23;59.50;100547.53;4924334;28;20472;-71
2022/07/03 06:18:40;;;;;;;3.95;3.05;;;;;;;20.43;58.65;100551.25;4928684;28;20047;-72
2022/07/03 06:21:06;;;;;;;4.32;3.08;;;;;;;20.61;57.71;100548.81;4927090;29;20070;-72
2022/07/03 06:23:33;;;;;;;3.88;3.20;;;;;;;20.93;57.43;100559.47;4926970;29;20099;-73
2022/07/03 06:26:12;;;;;;;4.28;3.35;;;;;;;21.37;55.49;100557.41;4927772;28;20122;-72
2022/07/03 06:28:39;;;;;;;3.97;2.92;;;;;;;21.70;55.26;100535.50;4929010;28;20059;-73
2022/07/03 06:31:06;;;;;;;3.85;2.92;;;;;;;22.28;52.97;100549.03;4931261;28;20125;-73
2022/07/03 06:33:32;;;;;;;4.72;3.20;;;;;;;22.62;52.04;100558.38;4927983;28;20079;-73
2022/07/03 06:35:59;;;;;;;3.88;2.95;;;;;;;22.98;50.86;100547.78;4927831;28;20052;-72
2022/07/03 06:38:26;;;;;;;5.07;3.08;;;;;;;23.11;50.11;100545.59;4929389;28;20052;-72
2022/07/03 06:40:52;;;;;;;4.47;3.10;;;;;;;23.30;49.97;100541.91;4928026;28;20130;-72
2022/07/03 06:43:19;;;;;;;4.25;2.65;;;;;;;23.68;49.74;100535.47;4915460;28;20115;-72
2022/07/03 06:45:45;;;;;;;4.70;3.10;;;;;;;23.91;48.70;100547.56;4922396;28;20095;-73
2022/07/03 06:48:12;;;;;;;4.18;2.88;;;;;;;23.91;48.54;100539.44;4922218;28;20119;-73
2022/07/03 06:50:39;;;;;;;3.45;3.08;;;;;;;24.10;48.93;100543.84;4919885;28;20052;-74
2022/07/03 06:53:05;;;;;;;5.07;3.47;;;;;;;24.32;46.99;100542.53;4929290;28;20083;-71
2022/07/03 06:55:32;;;;;;;3.67;3.10;;;;;;;24.29;47.95;100540.13;4925945;28;20055;-72
2022/07/03 06:57:59;;;;;;;3.10;2.80;;;;;;;24.77;47.90;100529.66;4921278;29;20044;-72
2022/07/03 07:00:26;;;;;;;6.15;3.03;;;;;;;25.03;44.95;100537.78;4924447;28;20063;-72
2022/07/03 07:02:53;;;;;;;4.45;2.58;;;;;;;24.85;47.10;100542.41;4922479;28;20063;-73
2022/07/03 07:05:25;;;;;;;2.97;2.72;;;;;;;24.99;45.48;100543.72;4924568;28;20136;-74
2022/07/03 07:07:52;;;;;;;3.97;2.72;;;;;;;24.75;46.17;100547.94;4926664;28;20048;-74
2022/07/03 07:10:19;;;;;;;3.13;2.80;;;;;;;24.39;46.12;100541.78;4923983;28;20055;-75
2022/07/03 07:12:45;;;;;;;3.33;3.03;;;;;;;24.29;48.17;100548.25;4927531;28;20063;-73
2022/07/03 07:15:12;;;;;;;4.05;2.60;;;;;;;24.65;47.28;100544.47;4921302;29;20283;-73
2022/07/03 07:17:39;;;;;;;4.82;2.83;;;;;;;25.22;45.29;100543.97;4932994;28;20676;-71
2022/07/03 07:20:06;;;;;;;4.60;3.08;;;;;;;25.73;44.19;100529.44;4926099;28;20115;-71
2022/07/03 07:22:33;;;;;;;4.22;2.65;;;;;;;26.06;42.62;100528.47;4927761;29;20048;-73
2022/07/03 07:24:59;;;;;;;4.35;2.60;;;;;;;26.17;42.14;100503.69;4925871;28;20051;-73
2022/07/03 07:27:26;;;;;;;4.63;2.30;;;;;;;26.59;40.96;100540.72;4928577;28;20567;-73
2022/07/03 07:29:53;;;;;;;5.03;2.58;;;;;;;26.77;40.61;100519.59;4926192;29;20051;-74
2022/07/03 07:32:20;;;;;;;3.88;2.63;;;;;;;26.46;40.99;100548.50;4926010;28;20055;-75
2022/07/03 07:34:46;;;;;;;4.70;2.40;;;;;;;26.00;43.50;100550.00;4925885;28;20055;-73
2022/07/03 07:37:13;;;;;;;2.60;2.10;;;;;;;25.89;42.36;100547.59;4930270;28;20055;-74
2022/07/03 07:39:40;;;;;;;4.80;2.50;;;;;;;25.29;43.38;100553.16;4926380;28;20047;-72
2022/07/03 07:42:07;;;;;;;2.40;2.20;;;;;;;25.14;44.56;100558.34;4922308;28;20059;-73
2022/07/03 07:44:34;;;;;;;3.60;2.45;;;;;;;25.39;44.28;100554.72;4928261;28;20691;-73
2022/07/03 07:47:00;;;;;;;4.00;2.70;;;;;;;26.02;42.80;100551.53;4925820;28;20054;-72
2022/07/03 07:49:27;;;;;;;2.63;2.05;;;;;;;26.61;41.02;100549.50;4927155;28;20127;-73
2022/07/03 07:51:54;;;;;;;3.70;2.28;;;;;;;27.08;40.37;100556.91;4927328;28;20051;-73
2022/07/03 07:54:20;;;;;;;3.95;1.98;;;;;;;27.34;39.72;100551.22;4925612;28;20052;-74
2022/07/03 07:56:47;;;;;;;2.65;2.38;;;;;;;27.57;39.44;100527.66;4926491;28;20107;-72
2022/07/03 07:59:14;;;;;;;5.78;2.60;;;;;;;27.39;40.04;100549.66;4920798;28;20047;-74
2022/07/03 08:07:11;;;;;;;2.50;1.63;;;;;;;26.78;40.55;100553.06;4934500;28;20051;-73
2022/07/03 08:09:38;;;;;;;3.13;1.83;;;;;;;26.44;41.38;100547.84;4922938;28;20056;-72
2022/07/03 08:12:05;;;;;;;4.43;1.73;;;;;;;26.35;41.68;100541.56;4924309;28;20539;-73
2022/07/03 08:14:32;;;;;;;3.67;2.10;;;;;;;26.86;40.08;100537.59;4922294;28;20051;-73
2022/07/03 08:16:59;;;;;;;2.25;1.92;;;;;;;27.38;39.18;100539.81;4925213;28;20059;-74
2022/07/03 08:19:26;;;;;;;4.55;2.20;;;;;;;27.80;38.71;100541.31;4920904;29;20099;-74
2022/07/03 08:21:52;;;;;;;2.88;2.13;;;;;;;27.68;39.51;100546.34;4923547;29;20122;-74
2022/07/03 08:24:19;;;;;;;3.03;2.28;;;;;;;27.53;39.65;100545.38;4925581;28;20052;-74
2022/07/03 08:26:46;;;;;;;4.95;2.13;;;;;;;26.86;41.40;100536.75;4924346;29;20048;-73
2022/07/03 08:29:12;;;;;;;4.35;2.10;;;;;;;27.03;40.45;100535.72;4929307;28;20488;-73
2022/07/03 08:31:39;;;;;;;3.67;2.25;;;;;;;27.20;40.12;100533.78;4923404;28;20641;-74
2022/07/03 08:34:06;;;;;;;3.60;2.33;;;;;;;26.96;41.02;100517.53;4922616;29;20137;-74
2022/07/03 08:36:32;;;;;;;2.92;2.08;;;;;;;27.11;39.76;100516.63;4922436;28;20108;-72
2022/07/03 08:38:59;;;;;;;3.83;2.10;;;;;;;27.32;39.53;100532.38;4923373;28;20071;-72
2022/07/03 08:41:26;;;;;;;5.13;2.17;;;;;;;27.33;39.16;100527.78;4921309;29;20527;-72
2022/07/03 08:43:55;;;;;;;3.05;2.05;;;;;;;26.75;40.00;100523.53;4922034;28;20048;-72
2022/07/03 08:46:21;;;;;;;2.65;1.80;;;;;;;27.08;39.66;100529.72;4923783;29;20060;-75
2022/07/03 08:48:50;;;;;;;2.97;1.85;;;;;;;27.41;39.55;100525.84;4924754;28;20488;-72
2022/07/03 08:51:19;;;;;;;1.85;1.60;;;;;;;27.36;39.54;100527.44;4924256;28;20060;-73
2022/07/03 08:53:47;;;;;;;3.03;1.85;;;;;;;26.76;39.60;100530.66;4928447;29;20203;-73
2022/07/03 08:56:14;;;;;;;2.22;2.03;;;;;;;26.47;40.51;100510.31;4929951;28;20047;-72
2022/07/03 08:58:42;;;;;;;4.35;1.50;;;;;;;26.76;39.81;100498.88;4927696;28;20048;-73
2022/07/03 09:01:09;;;;;;;2.90;1.70;;;;;;;26.88;40.07;100532.00;4935740;28;20115;-73
2022/07/03 09:03:38;;;;;;;2.47;1.60;;;;;;;27.00;39.73;100527.06;4932219;28;20154;-73
2022/07/03 09:06:06;;;;;;;1.60;1.50;;;;;;;27.53;38.48;100534.47;4937244;28;20078;-72
2022/07/03 09:08:34;;;;;;;1.83;1.42;;;;;;;27.84;37.82;100534.50;4934910;28;20119;-74
2022/07/03 09:11:01;;;;;;;2.67;2.00;;;;;;;28.07;37.44;100515.44;4929565;28;20563;-72
2022/07/03 09:13:29;;;;;;;3.70;1.60;;;;;;;28.19;36.98;100509.41;4931687;28;20131;-73
2022/07/03 09:15:56;;;;;;;3.10;1.45;;;;;;;28.42;37.13;100517.53;4936653;28;20047;-72
2022/07/03 09:18:42;;;;;;;2.00;1.23;;;;;;;28.10;37.11;100505.03;4930562;28;20052;-73
2022/07/03 09:21:10;;;;;;;5.95;2.05;;;;;;;27.97;36.95;100518.41;4933341;28;20180;-74
2022/07/03 09:23:41;;;;;;;2.22;1.63;;;;;;;27.58;37.29;100530.22;4936596;28;20421;-74
2022/07/03 09:26:16;;;;;;;2.47;1.52;;;;;;;27.21;38.67;100525.44;4933350;28;20056;-73
2022/07/03 09:28:44;;;;;;;1.50;1.30;;;;;;;27.14;37.85;100524.44;4936478;28;20412;-73
2022/07/03 09:31:12;;;;;;;4.20;1.50;;;;;;;27.12;38.00;100521.06;4933520;28;20461;-74
2022/07/03 09:33:59;;;;;;;3.47;1.48;;;;;;;27.25;38.32;100523.22;4931362;28;20087;-72
2022/07/03 09:36:46;;;;;;;2.42;1.70;;;;;;;27.28;38.11;100524.72;4933996;28;20058;-73
2022/07/03 09:39:19;;;;;;;2.28;1.33;;;;;;;27.09;38.01;100515.13;4931121;28;20051;-74
2022/07/03 09:41:59;;;;;;;2.17;1.50;;;;;;;27.23;37.68;100515.22;4926871;29;20139;-74
2022/07/03 09:44:46;;;;;;;2.15;1.33;;;;;;;27.41;37.38;100514.97;4930808;28;20064;-75
2022/07/03 09:47:25;;;;;;;2.97;1.40;;;;;;;27.66;37.32;100517.59;4934829;28;20064;-72
2022/07/03 09:49:51;;;;;;;1.67;1.45;;;;;;;27.79;36.31;100523.28;4923813;28;20140;-74
2022/07/03 09:52:38;;;;;;;3.30;1.17;;;;;;;27.69;35.47;100515.38;4930327;28;20449;-73
2022/07/03 09:55:08;;;;;;;1.38;1.00;;;;;;;27.49;35.30;100512.22;4930456;28;20048;-74
2022/07/03 09:57:46;;;;;;;2.40;0.98;;;;;;;27.42;34.50;100522.09;4931988;28;20472;-73
2022/07/03 10:00:14;;;;;;;6.47;1.27;;;;;;;27.23;34.80;100495.38;4929124;28;20048;-73
2022/07/03 10:03:03;;;;;;;3.78;1.20;;;;;;;27.51;34.88;100509.31;4936829;28;20095;-73
2022/07/03 10:05:35;;;;;;;1.83;1.00;;;;;;;27.54;33.28;100504.38;4927880;28;20511;-73
2022/07/03 10:08:06;;;;;;;1.50;1.10;;;;;;;27.68;33.72;100502.78;4935194;28;20063;-73
2022/07/03 10:10:36;;;;;;;0.90;0.80;;;;;;;27.99;33.58;100510.91;4930205;28;20051;-73
2022/07/03 10:13:03;;;;;;;0.88;0.80;;;;;;;28.17;32.31;100506.00;4930836;28;20095;-74
2022/07/03 10:15:32;;;;;;;1.23;0.90;;;;;;;28.17;33.30;100503.28;4932472;28;20547;-74
2022/07/03 10:18:00;;;;;;;3.58;1.35;;;;;;;28.13;33.39;100509.28;4931812;28;20052;-73
2022/07/03 10:20:26;;;;;;;1.35;1.02;;;;;;;28.08;33.34;100509.81;4928105;28;20059;-74
2022/07/03 10:22:54;;;;;;;1.98;1.10;;;;;;;28.00;33.45;100492.72;4931881;28;20055;-73
2022/07/03 10:25:22;;;;;;;2.30;1.25;;;;;;;27.96;33.78;100491.38;4931430;28;20539;-73
2022/07/03 10:27:49;;;;;;;2.80;1.75;;;;;;;28.02;33.92;100502.34;4924098;28;20115;-73
2022/07/03 10:30:19;;;;;;;4.07;1.13;;;;;;;28.13;33.24;100501.94;4930441;28;20190;-74
2022/07/03 10:32:47;;;;;;;1.67;1.20;;;;;;;28.08;32.75;100498.91;4931576;28;20052;-74
2022/07/03 10:35:19;;;;;;;2.30;1.00;;;;;;;28.03;32.90;100498.59;4933563;28;20090;-73
2022/07/03 10:38:22;;;;;;;0.80;0.60;;;;;;;28.09;31.90;100502.50;4929946;28;20067;-74
2022/07/03 10:46:33;;;;;;;1.00;0.90;;;;;;;28.34;31.55;100501.25;4926202;28;20051;-73
2022/07/03 10:49:07;;;;;;;3.17;1.00;;;;;;;28.40;31.19;100495.09;4929740;28;20055;-73
2022/07/03 10:51:49;;;;;;;1.30;0.80;;;;;;;28.31;31.04;100501.66;4928200;28;20083;-73
2022/07/03 10:54:25;;;;;;;0.82;0.77;;;;;;;28.40;31.54;100488.78;4929243;28;20051;-72
2022/07/03 10:56:57;;;;;;;1.33;0.82;;;;;;;28.61;31.22;100491.66;4929448;28;20468;-74
2022/07/03 10:59:36;;;;;;;2.95;0.90;;;;;;;28.88;31.20;100495.63;4929528;28;20054;-74
2022/07/03 11:02:34;;;;;;;1.45;0.90;;;;;;;28.87;31.33;100499.41;4933292;28;20082;-73
2022/07/03 11:05:01;;;;;;;2.05;0.80;;;;;;;28.78;31.80;100490.44;4931205;28;20055;-74
2022/07/03 11:07:47;;;;;;;3.85;0.80;;;;;;;28.78;31.77;100479.53;4937699;28;20055;-73
2022/07/03 11:10:19;;;;;;;1.15;0.70;;;;;;;28.75;31.75;100485.38;4931837;28;20043;-74
2022/07/03 11:13:01;;;;;;;2.00;0.82;;;;;;;28.80;32.87;100463.88;4927224;28;20053;-73
2022/07/03 11:15:36;;;;;;;1.70;0.82;;;;;;;29.11;30.88;100479.19;4933072;28;20048;-73
2022/07/03 11:18:12;;;;;;;2.63;0.80;;;;;;;29.16;30.19;100485.75;4930134;28;20150;-73
2022/07/03 11:20:41;;;;;;;2.30;0.98;;;;;;;29.36;30.35;100466.91;4931055;28;20040;-73
2022/07/03 11:23:26;;;;;;;2.42;1.13;;;;;;;29.82;30.20;100469.31;4929213;28;20060;-74
2022/07/03 11:25:58;;;;;;;1.55;0.80;;;;;;;29.52;29.95;100450.31;4933695;28;20048;-74
2022/07/03 11:28:30;;;;;;;1.10;0.88;;;;;;;29.50;30.99;100466.03;4932458;28;20115;-77
2022/07/03 11:31:13;;;;;;;1.38;0.68;;;;;;;29.27;30.73;100455.28;4933091;28;20446;-74
2022/07/03 11:33:42;;;;;;;3.70;1.00;;;;;;;29.18;31.01;100445.50;4930541;28;20079;-73
2022/07/03 11:36:14;;;;;;;1.05;0.80;;;;;;;28.79;30.77;100455.88;4926688;28;20059;-72
2022/07/03 11:38:46;;;;;;;1.65;0.80;;;;;;;28.44;31.52;100447.38;4930561;28;20637;-74
2022/07/03 11:41:15;;;;;;;2.08;0.90;;;;;;;28.77;31.43;100456.03;4932351;28;20079;-74
2022/07/03 11:44:01;;;;;;;1.05;0.93;;;;;;;29.29;29.52;100446.88;4930326;28;20052;-74
2022/07/03 11:46:34;;;;;;;1.90;0.80;;;;;;;29.50;29.58;100433.28;4932032;28;20083;-73
2022/07/03 11:49:04;;;;;;;2.20;0.73;;;;;;;29.52;29.11;100436.69;4929660;28;20072;-73
2022/07/03 11:51:32;;;;;;;3.00;0.98;;;;;;;29.65;29.30;100441.44;4926973;28;20575;-74
2022/07/03 11:53:59;;;;;;;4.43;0.80;;;;;;;29.78;28.75;100425.16;4926922;28;20500;-74
2022/07/03 11:56:26;;;;;;;1.33;0.75;;;;;;;29.61;29.96;100430.03;4931402;28;20039;-73
2022/07/03 11:58:55;;;;;;;0.85;0.55;;;;;;;29.38;28.54;100429.38;4926456;29;20091;-73